sensor_id;sensor_type;location;lat;lon;timestamp;P1;durP1;ratioP1;P2;durP2;ratioP2
80377;SDS011;69688;48.124;11.542;2023-04-30T00:00:55;6.15;;;3.97;;
80377;SDS011;69688;48.124;11.542;2023-04-30T00:03:21;6.35;;;4.10;;
80377;SDS011;69688;48.124;11.542;2023-04-30T00:05:51;5.40;;;3.70;;
80377;SDS011;69688;48.124;11.542;2023-04-30T00:08:17;5.65;;;4.10;;
80377;SDS011;69688;48.124;11.542;2023-04-30T00:10:43;7.15;;;4.38;;
80377;SDS011;69688;48.124;11.542;2023-04-30T00:13:09;5.57;;;3.72;;
80377;SDS011;69688;48.124;11.542;2023-04-30T00:15:37;7.38;;;5.05;;
80377;SDS011;69688;48.124;11.542;2023-04-30T00:18:03;7.32;;;4.60;;
80377;SDS011;69688;48.124;11.542;2023-04-30T00:20:31;5.60;;;4.05;;
80377;SDS011;69688;48.124;11.542;2023-04-30T00:22:56;6.85;;;4.38;;
80377;SDS011;69688;48.124;11.542;2023-04-30T00:25:22;6.80;;;4.40;;
80377;SDS011;69688;48.124;11.542;2023-04-30T00:27:49;7.65;;;4.85;;
80377;SDS011;69688;48.124;11.542;2023-04-30T00:30:15;6.57;;;4.07;;
80377;SDS011;69688;48.124;11.542;2023-04-30T00:32:41;7.38;;;4.72;;
80377;SDS011;69688;48.124;11.542;2023-04-30T00:35:07;6.40;;;4.75;;
80377;SDS011;69688;48.124;11.542;2023-04-30T00:37:33;6.43;;;4.63;;
80377;SDS011;69688;48.124;11.542;2023-04-30T00:39:58;5.60;;;4.25;;
80377;SDS011;69688;48.124;11.542;2023-04-30T00:42:24;6.68;;;4.75;;
80377;SDS011;69688;48.124;11.542;2023-04-30T00:44:50;6.10;;;4.40;;
80377;SDS011;69688;48.124;11.542;2023-04-30T00:47:16;6.82;;;5.22;;
80377;SDS011;69688;48.124;11.542;2023-04-30T00:49:42;6.45;;;5.35;;
80377;SDS011;69688;48.124;11.542;2023-04-30T00:52:08;7.50;;;5.15;;
80377;SDS011;69688;48.124;11.542;2023-04-30T00:54:37;7.55;;;4.97;;
80377;SDS011;69688;48.124;11.542;2023-04-30T00:57:04;7.55;;;4.68;;
80377;SDS011;69688;48.124;11.542;2023-04-30T00:59:30;7.05;;;5.25;;
80377;SDS011;69688;48.124;11.542;2023-04-30T01:01:57;8.52;;;5.38;;
80377;SDS011;69688;48.124;11.542;2023-04-30T01:04:23;8.45;;;5.72;;
80377;SDS011;69688;48.124;11.542;2023-04-30T01:06:49;6.57;;;4.63;;
80377;SDS011;69688;48.124;11.542;2023-04-30T01:09:16;8.20;;;5.35;;
80377;SDS011;69688;48.124;11.542;2023-04-30T01:14:21;8.68;;;5.60;;
80377;SDS011;69688;48.124;11.542;2023-04-30T01:17:31;7.60;;;5.50;;
80377;SDS011;69688;48.124;11.542;2023-04-30T01:19:41;8.32;;;5.43;;
80377;SDS011;69688;48.124;11.542;2023-04-30T01:22:19;8.52;;;6.22;;
80377;SDS011;69688;48.124;11.542;2023-04-30T01:25:04;8.55;;;6.55;;
80377;SDS011;69688;48.124;11.542;2023-04-30T01:30:16;9.27;;;6.20;;
80377;SDS011;69688;48.124;11.542;2023-04-30T01:32:43;9.88;;;5.95;;
80377;SDS011;69688;48.124;11.542;2023-04-30T01:35:09;8.40;;;5.93;;
80377;SDS011;69688;48.124;11.542;2023-04-30T01:37:43;9.73;;;7.00;;
80377;SDS011;69688;48.124;11.542;2023-04-30T01:40:30;9.80;;;6.63;;
80377;SDS011;69688;48.124;11.542;2023-04-30T01:43:11;9.65;;;6.93;;
80377;SDS011;69688;48.124;11.542;2023-04-30T01:48:08;8.93;;;7.13;;
80377;SDS011;69688;48.124;11.542;2023-04-30T01:53:06;9.88;;;7.18;;
80377;SDS011;69688;48.124;11.542;2023-04-30T01:58:04;9.18;;;7.32;;
80377;SDS011;69688;48.124;11.542;2023-04-30T02:00:30;9.68;;;7.10;;
80377;SDS011;69688;48.124;11.542;2023-04-30T02:02:56;10.43;;;7.35;;
80377;SDS011;69688;48.124;11.542;2023-04-30T02:05:22;10.20;;;7.55;;
80377;SDS011;69688;48.124;11.542;2023-04-30T02:07:49;9.48;;;7.65;;
80377;SDS011;69688;48.124;11.542;2023-04-30T02:10:16;9.63;;;7.38;;
80377;SDS011;69688;48.124;11.542;2023-04-30T02:12:42;9.68;;;7.03;;
80377;SDS011;69688;48.124;11.542;2023-04-30T02:15:08;10.68;;;8.02;;
80377;SDS011;69688;48.124;11.542;2023-04-30T02:17:34;10.18;;;7.68;;
80377;SDS011;69688;48.124;11.542;2023-04-30T02:20:00;11.52;;;7.97;;
80377;SDS011;69688;48.124;11.542;2023-04-30T02:22:26;11.85;;;8.70;;
80377;SDS011;69688;48.124;11.542;2023-04-30T02:24:52;11.32;;;7.85;;
80377;SDS011;69688;48.124;11.542;2023-04-30T02:27:20;12.35;;;7.90;;
80377;SDS011;69688;48.124;11.542;2023-04-30T02:29:46;12.30;;;8.88;;
80377;SDS011;69688;48.124;11.542;2023-04-30T02:32:12;11.23;;;7.45;;
80377;SDS011;69688;48.124;11.542;2023-04-30T02:34:38;12.90;;;9.35;;
80377;SDS011;69688;48.124;11.542;2023-04-30T02:37:04;11.85;;;8.43;;
80377;SDS011;69688;48.124;11.542;2023-04-30T02:39:31;12.32;;;8.50;;
80377;SDS011;69688;48.124;11.542;2023-04-30T02:41:56;13.00;;;9.35;;
80377;SDS011;69688;48.124;11.542;2023-04-30T02:44:23;11.77;;;8.88;;
80377;SDS011;69688;48.124;11.542;2023-04-30T02:46:49;12.75;;;9.57;;
80377;SDS011;69688;48.124;11.542;2023-04-30T02:49:15;12.57;;;8.75;;
80377;SDS011;69688;48.124;11.542;2023-04-30T02:51:41;13.25;;;8.45;;
80377;SDS011;69688;48.124;11.542;2023-04-30T02:54:07;14.10;;;9.38;;
80377;SDS011;69688;48.124;11.542;2023-04-30T02:56:33;13.60;;;9.25;;
80377;SDS011;69688;48.124;11.542;2023-04-30T02:58:59;12.90;;;8.93;;
80377;SDS011;69688;48.124;11.542;2023-04-30T03:01:25;13.02;;;9.50;;
80377;SDS011;69688;48.124;11.542;2023-04-30T03:03:51;12.65;;;9.80;;
80377;SDS011;69688;48.124;11.542;2023-04-30T03:06:17;12.43;;;9.10;;
80377;SDS011;69688;48.124;11.542;2023-04-30T03:08:43;14.63;;;9.38;;
80377;SDS011;69688;48.124;11.542;2023-04-30T03:11:09;14.25;;;10.02;;
80377;SDS011;69688;48.124;11.542;2023-04-30T03:13:35;15.00;;;10.50;;
80377;SDS011;69688;48.124;11.542;2023-04-30T03:16:01;13.15;;;9.93;;
80377;SDS011;69688;48.124;11.542;2023-04-30T03:18:28;14.23;;;9.90;;
80377;SDS011;69688;48.124;11.542;2023-04-30T03:20:55;14.38;;;10.43;;
80377;SDS011;69688;48.124;11.542;2023-04-30T03:23:21;14.68;;;10.60;;
80377;SDS011;69688;48.124;11.542;2023-04-30T03:25:47;14.50;;;10.63;;
80377;SDS011;69688;48.124;11.542;2023-04-30T03:28:13;15.75;;;12.02;;
80377;SDS011;69688;48.124;11.542;2023-04-30T03:30:39;15.10;;;10.18;;
80377;SDS011;69688;48.124;11.542;2023-04-30T03:33:05;15.93;;;11.90;;
80377;SDS011;69688;48.124;11.542;2023-04-30T03:35:32;15.40;;;10.82;;
80377;SDS011;69688;48.124;11.542;2023-04-30T03:37:58;17.40;;;11.10;;
80377;SDS011;69688;48.124;11.542;2023-04-30T03:40:24;16.05;;;10.63;;
80377;SDS011;69688;48.124;11.542;2023-04-30T03:42:50;15.80;;;11.25;;
80377;SDS011;69688;48.124;11.542;2023-04-30T03:45:16;15.30;;;10.18;;
80377;SDS011;69688;48.124;11.542;2023-04-30T03:47:42;14.27;;;10.63;;
80377;SDS011;69688;48.124;11.542;2023-04-30T03:50:08;16.70;;;11.00;;
80377;SDS011;69688;48.124;11.542;2023-04-30T03:52:34;16.75;;;11.50;;
80377;SDS011;69688;48.124;11.542;2023-04-30T03:55:01;15.48;;;10.02;;
80377;SDS011;69688;48.124;11.542;2023-04-30T03:57:27;14.35;;;9.70;;
80377;SDS011;69688;48.124;11.542;2023-04-30T03:59:53;15.98;;;11.57;;
80377;SDS011;69688;48.124;11.542;2023-04-30T04:02:19;14.73;;;10.52;;
80377;SDS011;69688;48.124;11.542;2023-04-30T04:04:45;15.52;;;11.30;;
80377;SDS011;69688;48.124;11.542;2023-04-30T04:07:11;14.38;;;11.23;;
80377;SDS011;69688;48.124;11.542;2023-04-30T04:09:37;13.95;;;9.65;;
80377;SDS011;69688;48.124;11.542;2023-04-30T04:12:03;15.70;;;11.32;;
80377;SDS011;69688;48.124;11.542;2023-04-30T04:14:30;13.13;;;10.75;;
80377;SDS011;69688;48.124;11.542;2023-04-30T04:16:55;14.60;;;11.30;;
80377;SDS011;69688;48.124;11.542;2023-04-30T04:19:23;14.82;;;10.82;;
80377;SDS011;69688;48.124;11.542;2023-04-30T04:21:49;16.13;;;11.57;;
80377;SDS011;69688;48.124;11.542;2023-04-30T04:24:15;17.40;;;10.32;;
80377;SDS011;69688;48.124;11.542;2023-04-30T04:26:41;15.82;;;11.45;;
80377;SDS011;69688;48.124;11.542;2023-04-30T04:29:07;14.73;;;10.40;;
80377;SDS011;69688;48.124;11.542;2023-04-30T04:31:33;13.95;;;11.15;;
80377;SDS011;69688;48.124;11.542;2023-04-30T04:34:01;15.75;;;9.85;;
80377;SDS011;69688;48.124;11.542;2023-04-30T04:36:28;15.02;;;11.20;;
80377;SDS011;69688;48.124;11.542;2023-04-30T04:38:54;11.93;;;8.93;;
80377;SDS011;69688;48.124;11.542;2023-04-30T04:41:27;15.88;;;11.10;;
80377;SDS011;69688;48.124;11.542;2023-04-30T04:43:53;15.27;;;10.88;;
80377;SDS011;69688;48.124;11.542;2023-04-30T04:46:20;13.40;;;9.27;;
80377;SDS011;69688;48.124;11.542;2023-04-30T04:48:46;14.45;;;10.02;;
80377;SDS011;69688;48.124;11.542;2023-04-30T04:51:12;13.45;;;9.95;;
80377;SDS011;69688;48.124;11.542;2023-04-30T04:53:38;12.77;;;9.57;;
80377;SDS011;69688;48.124;11.542;2023-04-30T04:56:04;13.38;;;9.77;;
80377;SDS011;69688;48.124;11.542;2023-04-30T04:58:31;13.80;;;9.40;;
80377;SDS011;69688;48.124;11.542;2023-04-30T05:00:57;12.68;;;10.38;;
80377;SDS011;69688;48.124;11.542;2023-04-30T05:03:24;14.65;;;9.57;;
80377;SDS011;69688;48.124;11.542;2023-04-30T05:05:50;12.65;;;9.57;;
80377;SDS011;69688;48.124;11.542;2023-04-30T05:08:15;12.90;;;10.15;;
80377;SDS011;69688;48.124;11.542;2023-04-30T05:10:41;13.27;;;9.75;;
80377;SDS011;69688;48.124;11.542;2023-04-30T05:13:07;14.18;;;9.02;;
80377;SDS011;69688;48.124;11.542;2023-04-30T05:15:33;13.07;;;9.52;;
80377;SDS011;69688;48.124;11.542;2023-04-30T05:17:59;13.82;;;9.68;;
80377;SDS011;69688;48.124;11.542;2023-04-30T05:20:25;13.20;;;9.00;;
80377;SDS011;69688;48.124;11.542;2023-04-30T05:22:51;13.45;;;10.35;;
80377;SDS011;69688;48.124;11.542;2023-04-30T05:25:17;15.10;;;10.40;;
80377;SDS011;69688;48.124;11.542;2023-04-30T05:27:43;13.77;;;9.75;;
80377;SDS011;69688;48.124;11.542;2023-04-30T05:30:09;12.10;;;9.05;;
80377;SDS011;69688;48.124;11.542;2023-04-30T05:32:35;13.30;;;9.15;;
80377;SDS011;69688;48.124;11.542;2023-04-30T05:35:01;14.82;;;9.27;;
80377;SDS011;69688;48.124;11.542;2023-04-30T05:37:27;13.15;;;9.20;;
80377;SDS011;69688;48.124;11.542;2023-04-30T05:39:53;12.30;;;9.85;;
80377;SDS011;69688;48.124;11.542;2023-04-30T05:42:19;11.77;;;8.50;;
80377;SDS011;69688;48.124;11.542;2023-04-30T05:44:46;12.43;;;9.35;;
80377;SDS011;69688;48.124;11.542;2023-04-30T05:47:13;13.48;;;10.13;;
80377;SDS011;69688;48.124;11.542;2023-04-30T05:49:39;11.73;;;8.27;;
80377;SDS011;69688;48.124;11.542;2023-04-30T05:52:04;11.43;;;8.43;;
80377;SDS011;69688;48.124;11.542;2023-04-30T05:54:31;12.75;;;8.77;;
80377;SDS011;69688;48.124;11.542;2023-04-30T05:56:57;11.73;;;8.63;;
80377;SDS011;69688;48.124;11.542;2023-04-30T05:59:23;11.13;;;8.73;;
80377;SDS011;69688;48.124;11.542;2023-04-30T06:01:49;13.43;;;9.15;;
80377;SDS011;69688;48.124;11.542;2023-04-30T06:04:15;11.98;;;8.60;;
80377;SDS011;69688;48.124;11.542;2023-04-30T06:06:41;12.73;;;8.93;;
80377;SDS011;69688;48.124;11.542;2023-04-30T06:09:07;11.43;;;8.50;;
80377;SDS011;69688;48.124;11.542;2023-04-30T06:11:34;10.52;;;7.45;;
80377;SDS011;69688;48.124;11.542;2023-04-30T06:14:01;11.98;;;8.50;;
80377;SDS011;69688;48.124;11.542;2023-04-30T06:16:28;11.27;;;9.00;;
80377;SDS011;69688;48.124;11.542;2023-04-30T06:18:54;12.13;;;8.40;;
80377;SDS011;69688;48.124;11.542;2023-04-30T06:21:20;13.85;;;9.45;;
80377;SDS011;69688;48.124;11.542;2023-04-30T06:23:49;13.70;;;9.38;;
80377;SDS011;69688;48.124;11.542;2023-04-30T06:26:16;12.35;;;8.82;;
80377;SDS011;69688;48.124;11.542;2023-04-30T06:28:42;12.45;;;8.30;;
80377;SDS011;69688;48.124;11.542;2023-04-30T06:31:08;12.38;;;8.10;;
80377;SDS011;69688;48.124;11.542;2023-04-30T06:33:33;11.95;;;8.85;;
80377;SDS011;69688;48.124;11.542;2023-04-30T06:35:59;11.98;;;9.05;;
80377;SDS011;69688;48.124;11.542;2023-04-30T06:38:25;11.82;;;7.90;;
80377;SDS011;69688;48.124;11.542;2023-04-30T06:40:51;12.80;;;9.23;;
80377;SDS011;69688;48.124;11.542;2023-04-30T06:43:17;12.07;;;8.70;;
80377;SDS011;69688;48.124;11.542;2023-04-30T06:45:43;12.52;;;9.18;;
80377;SDS011;69688;48.124;11.542;2023-04-30T06:48:09;13.75;;;9.32;;
80377;SDS011;69688;48.124;11.542;2023-04-30T06:50:35;12.57;;;8.13;;
80377;SDS011;69688;48.124;11.542;2023-04-30T06:53:09;12.43;;;8.52;;
80377;SDS011;69688;48.124;11.542;2023-04-30T06:55:35;12.68;;;9.40;;
80377;SDS011;69688;48.124;11.542;2023-04-30T06:58:01;12.80;;;10.38;;
80377;SDS011;69688;48.124;11.542;2023-04-30T07:00:29;12.40;;;8.88;;
80377;SDS011;69688;48.124;11.542;2023-04-30T07:02:55;11.68;;;8.48;;
80377;SDS011;69688;48.124;11.542;2023-04-30T07:05:24;13.93;;;9.40;;
80377;SDS011;69688;48.124;11.542;2023-04-30T07:07:50;12.40;;;8.80;;
80377;SDS011;69688;48.124;11.542;2023-04-30T07:10:17;11.48;;;8.82;;
80377;SDS011;69688;48.124;11.542;2023-04-30T07:12:43;10.73;;;7.57;;
80377;SDS011;69688;48.124;11.542;2023-04-30T07:15:09;12.52;;;9.95;;
80377;SDS011;69688;48.124;11.542;2023-04-30T07:17:35;10.80;;;8.30;;
80377;SDS011;69688;48.124;11.542;2023-04-30T07:20:02;13.02;;;8.50;;
80377;SDS011;69688;48.124;11.542;2023-04-30T07:22:29;13.77;;;10.05;;
80377;SDS011;69688;48.124;11.542;2023-04-30T07:24:55;12.05;;;9.27;;
80377;SDS011;69688;48.124;11.542;2023-04-30T07:27:21;11.90;;;9.43;;
80377;SDS011;69688;48.124;11.542;2023-04-30T07:29:47;14.02;;;9.50;;
80377;SDS011;69688;48.124;11.542;2023-04-30T07:32:13;12.48;;;8.18;;
80377;SDS011;69688;48.124;11.542;2023-04-30T07:34:40;11.35;;;7.75;;
80377;SDS011;69688;48.124;11.542;2023-04-30T07:37:07;14.23;;;8.48;;
80377;SDS011;69688;48.124;11.542;2023-04-30T07:39:33;13.57;;;9.40;;
80377;SDS011;69688;48.124;11.542;2023-04-30T07:41:59;13.52;;;8.68;;
80377;SDS011;69688;48.124;11.542;2023-04-30T07:44:27;11.02;;;7.72;;
80377;SDS011;69688;48.124;11.542;2023-04-30T07:46:53;11.45;;;7.75;;
80377;SDS011;69688;48.124;11.542;2023-04-30T07:49:19;11.45;;;8.55;;
80377;SDS011;69688;48.124;11.542;2023-04-30T07:51:45;11.48;;;8.57;;
80377;SDS011;69688;48.124;11.542;2023-04-30T07:54:11;11.07;;;7.18;;
80377;SDS011;69688;48.124;11.542;2023-04-30T07:56:37;9.45;;;6.60;;
80377;SDS011;69688;48.124;11.542;2023-04-30T07:59:03;9.50;;;6.72;;
80377;SDS011;69688;48.124;11.542;2023-04-30T08:01:29;8.13;;;6.38;;
80377;SDS011;69688;48.124;11.542;2023-04-30T08:03:55;7.80;;;5.70;;
80377;SDS011;69688;48.124;11.542;2023-04-30T08:06:21;9.52;;;6.68;;
80377;SDS011;69688;48.124;11.542;2023-04-30T08:08:47;8.52;;;6.93;;
80377;SDS011;69688;48.124;11.542;2023-04-30T08:11:13;8.70;;;6.72;;
80377;SDS011;69688;48.124;11.542;2023-04-30T08:13:40;9.80;;;6.45;;
80377;SDS011;69688;48.124;11.542;2023-04-30T08:16:06;8.55;;;6.03;;
80377;SDS011;69688;48.124;11.542;2023-04-30T08:18:32;9.00;;;6.80;;
80377;SDS011;69688;48.124;11.542;2023-04-30T08:20:58;10.70;;;5.95;;
80377;SDS011;69688;48.124;11.542;2023-04-30T08:23:25;7.75;;;5.60;;
80377;SDS011;69688;48.124;11.542;2023-04-30T08:25:51;7.57;;;5.65;;
80377;SDS011;69688;48.124;11.542;2023-04-30T08:28:17;8.00;;;5.80;;
80377;SDS011;69688;48.124;11.542;2023-04-30T08:30:43;7.90;;;5.43;;
80377;SDS011;69688;48.124;11.542;2023-04-30T08:33:09;6.13;;;4.10;;
80377;SDS011;69688;48.124;11.542;2023-04-30T08:35:35;4.20;;;3.40;;
80377;SDS011;69688;48.124;11.542;2023-04-30T08:38:01;4.65;;;3.95;;
80377;SDS011;69688;48.124;11.542;2023-04-30T08:40:27;5.70;;;3.50;;
80377;SDS011;69688;48.124;11.542;2023-04-30T08:42:59;4.20;;;3.15;;
80377;SDS011;69688;48.124;11.542;2023-04-30T08:45:25;4.07;;;3.13;;
80377;SDS011;69688;48.124;11.542;2023-04-30T08:47:52;4.68;;;2.90;;
80377;SDS011;69688;48.124;11.542;2023-04-30T08:50:19;3.13;;;2.83;;
80377;SDS011;69688;48.124;11.542;2023-04-30T08:52:45;4.25;;;3.20;;
80377;SDS011;69688;48.124;11.542;2023-04-30T08:55:11;4.30;;;3.40;;
80377;SDS011;69688;48.124;11.542;2023-04-30T08:57:37;4.25;;;3.63;;
80377;SDS011;69688;48.124;11.542;2023-04-30T09:00:03;3.47;;;3.15;;
80377;SDS011;69688;48.124;11.542;2023-04-30T09:02:31;3.22;;;2.92;;
80377;SDS011;69688;48.124;11.542;2023-04-30T09:04:57;3.22;;;2.92;;
80377;SDS011;69688;48.124;11.542;2023-04-30T09:07:23;3.88;;;2.55;;
80377;SDS011;69688;48.124;11.542;2023-04-30T09:09:52;3.00;;;2.65;;
80377;SDS011;69688;48.124;11.542;2023-04-30T09:12:18;3.47;;;2.78;;
80377;SDS011;69688;48.124;11.542;2023-04-30T09:15:00;3.00;;;2.70;;
80377;SDS011;69688;48.124;11.542;2023-04-30T09:17:26;2.85;;;2.47;;
80377;SDS011;69688;48.124;11.542;2023-04-30T09:19:52;3.45;;;2.60;;
80377;SDS011;69688;48.124;11.542;2023-04-30T09:22:19;3.08;;;2.60;;
80377;SDS011;69688;48.124;11.542;2023-04-30T09:24:46;2.90;;;2.70;;
80377;SDS011;69688;48.124;11.542;2023-04-30T09:27:17;3.05;;;2.72;;
80377;SDS011;69688;48.124;11.542;2023-04-30T09:29:43;2.38;;;2.17;;
80377;SDS011;69688;48.124;11.542;2023-04-30T09:32:10;2.88;;;2.50;;
80377;SDS011;69688;48.124;11.542;2023-04-30T09:34:36;3.08;;;2.72;;
80377;SDS011;69688;48.124;11.542;2023-04-30T09:37:02;2.80;;;2.47;;
80377;SDS011;69688;48.124;11.542;2023-04-30T09:39:28;2.58;;;2.35;;
80377;SDS011;69688;48.124;11.542;2023-04-30T09:42:09;3.17;;;2.85;;
80377;SDS011;69688;48.124;11.542;2023-04-30T09:44:37;2.50;;;2.10;;
80377;SDS011;69688;48.124;11.542;2023-04-30T09:47:03;2.95;;;2.20;;
80377;SDS011;69688;48.124;11.542;2023-04-30T09:49:29;3.60;;;3.30;;
80377;SDS011;69688;48.124;11.542;2023-04-30T09:51:55;2.50;;;2.28;;
80377;SDS011;69688;48.124;11.542;2023-04-30T09:54:28;2.40;;;2.20;;
80377;SDS011;69688;48.124;11.542;2023-04-30T09:56:55;2.90;;;2.33;;
80377;SDS011;69688;48.124;11.542;2023-04-30T09:59:27;2.22;;;1.98;;
80377;SDS011;69688;48.124;11.542;2023-04-30T10:01:54;2.53;;;2.30;;
80377;SDS011;69688;48.124;11.542;2023-04-30T10:04:22;2.45;;;2.20;;
80377;SDS011;69688;48.124;11.542;2023-04-30T10:06:50;2.55;;;2.15;;
80377;SDS011;69688;48.124;11.542;2023-04-30T10:09:17;2.55;;;2.35;;
80377;SDS011;69688;48.124;11.542;2023-04-30T10:11:43;2.60;;;2.40;;
80377;SDS011;69688;48.124;11.542;2023-04-30T10:14:09;2.45;;;2.20;;
80377;SDS011;69688;48.124;11.542;2023-04-30T10:16:43;3.08;;;2.72;;
80377;SDS011;69688;48.124;11.542;2023-04-30T10:19:18;2.88;;;2.58;;
80377;SDS011;69688;48.124;11.542;2023-04-30T10:21:45;2.45;;;2.08;;
80377;SDS011;69688;48.124;11.542;2023-04-30T10:24:12;2.35;;;1.90;;
80377;SDS011;69688;48.124;11.542;2023-04-30T10:26:39;2.72;;;1.90;;
80377;SDS011;69688;48.124;11.542;2023-04-30T10:29:06;2.42;;;2.00;;
80377;SDS011;69688;48.124;11.542;2023-04-30T10:31:32;3.60;;;2.03;;
80377;SDS011;69688;48.124;11.542;2023-04-30T10:34:03;2.40;;;1.90;;
80377;SDS011;69688;48.124;11.542;2023-04-30T10:38:57;2.60;;;2.40;;
80377;SDS011;69688;48.124;11.542;2023-04-30T10:41:25;3.25;;;2.38;;
80377;SDS011;69688;48.124;11.542;2023-04-30T10:43:56;2.92;;;2.50;;
80377;SDS011;69688;48.124;11.542;2023-04-30T10:46:23;4.85;;;4.38;;
80377;SDS011;69688;48.124;11.542;2023-04-30T10:48:51;5.72;;;3.97;;
80377;SDS011;69688;48.124;11.542;2023-04-30T10:51:19;7.28;;;4.50;;
80377;SDS011;69688;48.124;11.542;2023-04-30T10:53:45;13.73;;;6.60;;
80377;SDS011;69688;48.124;11.542;2023-04-30T10:56:13;8.55;;;6.07;;
80377;SDS011;69688;48.124;11.542;2023-04-30T10:58:53;7.05;;;5.10;;
80377;SDS011;69688;48.124;11.542;2023-04-30T11:01:23;7.70;;;5.03;;
80377;SDS011;69688;48.124;11.542;2023-04-30T11:04:03;7.32;;;5.82;;
80377;SDS011;69688;48.124;11.542;2023-04-30T11:06:54;7.50;;;5.75;;
80377;SDS011;69688;48.124;11.542;2023-04-30T11:12:15;5.78;;;5.18;;
80377;SDS011;69688;48.124;11.542;2023-04-30T11:14:44;6.40;;;5.80;;
80377;SDS011;69688;48.124;11.542;2023-04-30T11:17:11;7.97;;;5.93;;
80377;SDS011;69688;48.124;11.542;2023-04-30T11:19:47;7.22;;;5.60;;
80377;SDS011;69688;48.124;11.542;2023-04-30T11:22:16;8.07;;;6.07;;
80377;SDS011;69688;48.124;11.542;2023-04-30T11:27:28;5.57;;;5.07;;
80377;SDS011;69688;48.124;11.542;2023-04-30T11:29:55;6.32;;;5.45;;
80377;SDS011;69688;48.124;11.542;2023-04-30T11:32:21;8.27;;;5.80;;
80377;SDS011;69688;48.124;11.542;2023-04-30T11:34:47;5.95;;;5.10;;
80377;SDS011;69688;48.124;11.542;2023-04-30T11:37:47;6.70;;;5.72;;
80377;SDS011;69688;48.124;11.542;2023-04-30T11:40:07;6.53;;;5.15;;
80377;SDS011;69688;48.124;11.542;2023-04-30T11:42:35;6.15;;;5.55;;
80377;SDS011;69688;48.124;11.542;2023-04-30T11:50:05;5.30;;;4.80;;
80377;SDS011;69688;48.124;11.542;2023-04-30T11:52:31;4.82;;;4.43;;
80377;SDS011;69688;48.124;11.542;2023-04-30T11:54:57;5.25;;;4.78;;
80377;SDS011;69688;48.124;11.542;2023-04-30T11:57:24;4.90;;;4.43;;
80377;SDS011;69688;48.124;11.542;2023-04-30T11:59:50;5.47;;;4.85;;
80377;SDS011;69688;48.124;11.542;2023-04-30T12:02:16;5.45;;;4.95;;
80377;SDS011;69688;48.124;11.542;2023-04-30T12:04:42;4.57;;;4.15;;
80377;SDS011;69688;48.124;11.542;2023-04-30T12:07:09;5.10;;;4.18;;
80377;SDS011;69688;48.124;11.542;2023-04-30T12:09:50;4.35;;;3.95;;
80377;SDS011;69688;48.124;11.542;2023-04-30T12:12:25;5.40;;;4.93;;
80377;SDS011;69688;48.124;11.542;2023-04-30T12:14:51;5.07;;;4.68;;
80377;SDS011;69688;48.124;11.542;2023-04-30T12:17:32;4.72;;;3.88;;
80377;SDS011;69688;48.124;11.542;2023-04-30T12:19:59;4.22;;;3.83;;
80377;SDS011;69688;48.124;11.542;2023-04-30T12:22:25;4.57;;;3.45;;
80377;SDS011;69688;48.124;11.542;2023-04-30T12:24:52;5.38;;;4.60;;
80377;SDS011;69688;48.124;11.542;2023-04-30T12:27:32;5.13;;;3.50;;
80377;SDS011;69688;48.124;11.542;2023-04-30T12:30:01;3.42;;;3.03;;
80377;SDS011;69688;48.124;11.542;2023-04-30T12:32:27;2.95;;;2.65;;
80377;SDS011;69688;48.124;11.542;2023-04-30T12:34:56;4.30;;;3.20;;
80377;SDS011;69688;48.124;11.542;2023-04-30T12:37:25;3.80;;;2.72;;
80377;SDS011;69688;48.124;11.542;2023-04-30T12:39:51;4.95;;;2.42;;
80377;SDS011;69688;48.124;11.542;2023-04-30T12:42:17;2.55;;;2.22;;
80377;SDS011;69688;48.124;11.542;2023-04-30T12:44:44;4.03;;;3.05;;
80377;SDS011;69688;48.124;11.542;2023-04-30T12:47:10;2.92;;;2.63;;
80377;SDS011;69688;48.124;11.542;2023-04-30T12:49:36;2.78;;;2.47;;
80377;SDS011;69688;48.124;11.542;2023-04-30T12:52:03;2.92;;;2.33;;
80377;SDS011;69688;48.124;11.542;2023-04-30T12:54:33;3.15;;;2.25;;
80377;SDS011;69688;48.124;11.542;2023-04-30T12:57:03;3.47;;;2.25;;
80377;SDS011;69688;48.124;11.542;2023-04-30T12:59:31;3.20;;;2.10;;
80377;SDS011;69688;48.124;11.542;2023-04-30T13:02:04;2.95;;;2.55;;
80377;SDS011;69688;48.124;11.542;2023-04-30T13:04:31;2.50;;;2.20;;
80377;SDS011;69688;48.124;11.542;2023-04-30T13:06:57;3.08;;;2.53;;
80377;SDS011;69688;48.124;11.542;2023-04-30T13:09:23;6.35;;;2.78;;
80377;SDS011;69688;48.124;11.542;2023-04-30T13:11:49;4.43;;;2.58;;
80377;SDS011;69688;48.124;11.542;2023-04-30T13:14:15;2.90;;;2.13;;
80377;SDS011;69688;48.124;11.542;2023-04-30T13:16:42;4.20;;;2.22;;
80377;SDS011;69688;48.124;11.542;2023-04-30T13:19:08;3.53;;;2.10;;
80377;SDS011;69688;48.124;11.542;2023-04-30T13:21:34;3.05;;;2.38;;
80377;SDS011;69688;48.124;11.542;2023-04-30T13:24:00;2.20;;;1.90;;
80377;SDS011;69688;48.124;11.542;2023-04-30T13:26:26;2.65;;;2.25;;
80377;SDS011;69688;48.124;11.542;2023-04-30T13:28:52;3.20;;;2.28;;
80377;SDS011;69688;48.124;11.542;2023-04-30T13:31:18;3.15;;;1.90;;
80377;SDS011;69688;48.124;11.542;2023-04-30T13:33:44;2.85;;;2.45;;
80377;SDS011;69688;48.124;11.542;2023-04-30T13:36:10;3.88;;;2.13;;
80377;SDS011;69688;48.124;11.542;2023-04-30T13:38:36;4.72;;;2.22;;
80377;SDS011;69688;48.124;11.542;2023-04-30T13:41:03;2.60;;;2.40;;
80377;SDS011;69688;48.124;11.542;2023-04-30T13:43:29;2.33;;;2.13;;
80377;SDS011;69688;48.124;11.542;2023-04-30T13:45:55;2.78;;;2.10;;
80377;SDS011;69688;48.124;11.542;2023-04-30T13:48:22;2.58;;;2.00;;
80377;SDS011;69688;48.124;11.542;2023-04-30T13:50:48;2.88;;;2.35;;
80377;SDS011;69688;48.124;11.542;2023-04-30T13:53:14;2.78;;;2.20;;
80377;SDS011;69688;48.124;11.542;2023-04-30T13:55:40;3.97;;;2.80;;
80377;SDS011;69688;48.124;11.542;2023-04-30T13:58:06;3.25;;;2.60;;
80377;SDS011;69688;48.124;11.542;2023-04-30T14:00:32;2.20;;;1.58;;
80377;SDS011;69688;48.124;11.542;2023-04-30T14:02:58;2.58;;;2.10;;
80377;SDS011;69688;48.124;11.542;2023-04-30T14:05:24;2.90;;;2.00;;
80377;SDS011;69688;48.124;11.542;2023-04-30T14:07:50;2.22;;;1.67;;
80377;SDS011;69688;48.124;11.542;2023-04-30T14:10:16;1.95;;;1.70;;
80377;SDS011;69688;48.124;11.542;2023-04-30T14:12:42;2.92;;;2.25;;
80377;SDS011;69688;48.124;11.542;2023-04-30T14:15:08;2.40;;;1.75;;
80377;SDS011;69688;48.124;11.542;2023-04-30T14:17:34;2.20;;;1.80;;
80377;SDS011;69688;48.124;11.542;2023-04-30T14:20:00;3.58;;;2.10;;
80377;SDS011;69688;48.124;11.542;2023-04-30T14:22:26;2.85;;;2.00;;
80377;SDS011;69688;48.124;11.542;2023-04-30T14:24:52;3.00;;;2.33;;
80377;SDS011;69688;48.124;11.542;2023-04-30T14:27:18;2.55;;;1.88;;
80377;SDS011;69688;48.124;11.542;2023-04-30T14:29:45;4.50;;;2.30;;
80377;SDS011;69688;48.124;11.542;2023-04-30T14:32:11;2.00;;;1.70;;
80377;SDS011;69688;48.124;11.542;2023-04-30T14:34:38;2.42;;;1.77;;
80377;SDS011;69688;48.124;11.542;2023-04-30T14:37:04;2.40;;;1.90;;
80377;SDS011;69688;48.124;11.542;2023-04-30T14:39:30;2.65;;;1.85;;
80377;SDS011;69688;48.124;11.542;2023-04-30T14:41:56;3.63;;;2.10;;
80377;SDS011;69688;48.124;11.542;2023-04-30T14:44:22;2.20;;;2.00;;
80377;SDS011;69688;48.124;11.542;2023-04-30T14:46:49;3.28;;;1.98;;
80377;SDS011;69688;48.124;11.542;2023-04-30T14:49:15;2.50;;;1.95;;
80377;SDS011;69688;48.124;11.542;2023-04-30T14:51:41;2.45;;;1.90;;
80377;SDS011;69688;48.124;11.542;2023-04-30T14:54:07;2.63;;;1.88;;